createdAt,value
2022-11-19T00:00:43.176Z,7.15
2022-11-19T00:05:47.176Z,10.02
2022-11-19T00:10:48.789Z,7.53
2022-11-19T00:15:50.345Z,8.55
2022-11-19T00:20:51.888Z,8.43
2022-11-19T00:25:53.435Z,7.60
2022-11-19T00:30:54.976Z,9.57
2022-11-19T00:35:58.378Z,10.38
2022-11-19T00:41:00.130Z,6.63
2022-11-19T00:46:01.725Z,9.10
2022-11-19T00:51:03.507Z,10.52
2022-11-19T00:56:11.239Z,10.00
2022-11-19T01:01:14.576Z,9.63
2022-11-19T01:06:19.598Z,9.13
2022-11-19T01:11:30.079Z,14.43
2022-11-19T01:16:34.994Z,9.35
2022-11-19T01:21:37.143Z,6.10
2022-11-19T01:26:42.878Z,11.25
2022-11-19T01:31:46.984Z,7.82
2022-11-19T01:36:48.524Z,7.25
2022-11-19T01:41:50.122Z,9.52
2022-11-19T01:46:51.668Z,8.07
2022-11-19T01:52:00.683Z,8.23
2022-11-19T01:57:09.479Z,6.47
2022-11-19T02:02:11.186Z,6.60
2022-11-19T02:07:13.992Z,9.43
2022-11-19T02:12:40.152Z,6.57
2022-11-19T02:18:18.303Z,6.72
2022-11-19T02:23:22.742Z,4.70
2022-11-19T02:28:48.227Z,7.35
2022-11-19T02:33:55.835Z,4.20
2022-11-19T02:39:25.045Z,6.85
2022-11-19T02:44:54.536Z,6.23
2022-11-19T02:50:03.140Z,6.00
2022-11-19T02:55:05.552Z,10.45
2022-11-19T03:00:26.901Z,6.28
2022-11-19T03:05:33.553Z,10.40
2022-11-19T03:11:10.285Z,6.32
2022-11-19T03:16:41.951Z,6.43
2022-11-19T03:22:08.108Z,8.93
2022-11-19T03:27:12.327Z,9.30
2022-11-19T03:32:19.517Z,6.55
2022-11-19T03:37:24.271Z,8.43
2022-11-19T03:42:27.478Z,10.68
2022-11-19T03:47:36.876Z,6.88
2022-11-19T03:52:38.924Z,7.90
2022-11-19T03:57:40.689Z,8.85
2022-11-19T04:02:42.380Z,8.90
2022-11-19T04:07:44.908Z,11.75
2022-11-19T04:12:52.943Z,12.65
2022-11-19T04:17:54.655Z,10.55
2022-11-19T04:22:56.193Z,12.75
2022-11-19T04:27:57.789Z,11.55
2022-11-19T04:32:59.351Z,11.68
2022-11-19T04:38:00.918Z,17.38
2022-11-19T04:43:02.460Z,18.42
2022-11-19T04:48:04.280Z,12.70
2022-11-19T04:53:05.818Z,14.60
2022-11-19T04:58:07.491Z,12.23
2022-11-19T05:03:09.042Z,12.45
2022-11-19T05:08:10.591Z,12.65
2022-11-19T05:13:17.423Z,15.15
2022-11-19T05:18:18.972Z,13.48
2022-11-19T05:23:21.120Z,16.80
2022-11-19T05:28:37.635Z,14.20
2022-11-19T05:33:40.302Z,16.60
2022-11-19T05:38:41.878Z,17.00
2022-11-19T05:43:43.414Z,12.07
2022-11-19T05:48:44.959Z,12.15
2022-11-19T05:53:46.537Z,14.35
2022-11-19T05:58:48.091Z,12.45
2022-11-19T06:03:49.631Z,14.18
2022-11-19T06:08:51.608Z,15.18
2022-11-19T06:13:56.952Z,14.18
2022-11-19T06:18:58.508Z,16.45
2022-11-19T06:24:03.031Z,16.67
2022-11-19T06:29:04.612Z,18.52
2022-11-19T06:34:06.326Z,17.75
2022-11-19T06:39:07.987Z,16.63
2022-11-19T06:44:09.536Z,17.08
2022-11-19T06:49:19.579Z,16.52
2022-11-19T06:54:21.785Z,13.18
2022-11-19T06:59:23.365Z,15.82
2022-11-19T07:04:24.908Z,13.60
2022-11-19T07:09:26.453Z,15.48
2022-11-19T07:14:28.005Z,16.23
2022-11-19T07:19:29.632Z,16.85
2022-11-19T07:24:31.216Z,16.75
2022-11-19T07:29:32.754Z,18.30
2022-11-19T07:34:34.428Z,15.95
2022-11-19T07:39:36.012Z,14.82
2022-11-19T07:44:37.570Z,13.65
2022-11-19T07:49:39.183Z,12.85
2022-11-19T07:54:40.761Z,17.60
2022-11-19T07:59:42.391Z,16.42
2022-11-19T08:04:44.000Z,14.05
2022-11-19T08:09:45.568Z,15.35
2022-11-19T08:14:47.123Z,13.40
2022-11-19T08:19:48.663Z,13.07
2022-11-19T08:24:50.272Z,12.45
2022-11-19T08:29:51.906Z,9.65
2022-11-19T08:34:53.500Z,8.40
2022-11-19T08:39:55.071Z,11.07
2022-11-19T08:44:56.629Z,10.48
2022-11-19T08:49:58.230Z,13.25
2022-11-19T08:55:02.173Z,10.52
2022-11-19T09:00:06.391Z,8.82
2022-11-19T09:05:13.280Z,10.43
2022-11-19T09:10:17.842Z,8.95
2022-11-19T09:15:21.076Z,11.68
2022-11-19T09:20:22.667Z,11.55
2022-11-19T09:25:24.315Z,11.52
2022-11-19T09:30:26.224Z,16.55
2022-11-19T09:35:39.440Z,10.50
2022-11-19T09:40:45.791Z,8.73
2022-11-19T09:45:53.327Z,9.82
2022-11-19T09:51:07.116Z,8.82
2022-11-19T09:56:13.107Z,7.13
2022-11-19T10:01:17.380Z,6.80
2022-11-19T10:06:25.661Z,8.52
2022-11-19T10:11:53.016Z,11.63
2022-11-19T10:17:13.499Z,7.70
2022-11-19T10:22:24.284Z,11.52
2022-11-19T10:27:35.458Z,8.18
2022-11-19T10:32:42.860Z,8.23
2022-11-19T10:38:05.328Z,6.20
2022-11-19T10:43:31.498Z,8.60
2022-11-19T10:48:37.821Z,9.00
2022-11-19T10:53:41.065Z,10.13
2022-11-19T10:58:56.604Z,8.20
2022-11-19T11:04:25.219Z,10.02
2022-11-19T11:09:40.030Z,9.52
2022-11-19T11:14:52.702Z,11.50
2022-11-19T11:20:04.928Z,6.95
2022-11-19T11:25:25.316Z,10.65
2022-11-19T11:30:27.136Z,9.13
2022-11-19T11:35:34.763Z,10.13
2022-11-19T11:40:36.991Z,8.20
2022-11-19T11:45:38.659Z,9.23
2022-11-19T11:50:45.626Z,7.55
2022-11-19T11:55:57.561Z,6.68
2022-11-19T12:01:15.899Z,7.55
2022-11-19T12:06:20.127Z,8.73
2022-11-19T12:11:54.506Z,7.68
2022-11-19T12:17:23.759Z,9.80
2022-11-19T12:22:33.070Z,15.03
2022-11-19T12:28:09.877Z,12.55
2022-11-19T12:33:20.268Z,8.80
2022-11-19T12:38:40.068Z,7.53
2022-11-19T12:44:01.703Z,9.43
2022-11-19T12:49:27.806Z,11.45
2022-11-19T12:54:47.698Z,14.27
2022-11-19T13:05:17.296Z,7.82
2022-11-19T13:10:28.888Z,8.07
2022-11-19T13:15:36.756Z,8.18
2022-11-19T13:20:46.103Z,11.45
2022-11-19T13:26:20.030Z,9.65
2022-11-19T13:31:41.256Z,9.00
2022-11-19T13:37:07.898Z,11.25
2022-11-19T13:42:29.173Z,10.73
2022-11-19T13:47:57.928Z,9.85
2022-11-19T13:53:34.956Z,7.77
2022-11-19T13:58:47.138Z,7.03
2022-11-19T14:03:57.811Z,9.90
2022-11-19T14:09:08.679Z,7.78
2022-11-19T14:14:38.079Z,9.00
2022-11-19T14:20:12.423Z,10.02
2022-11-19T14:26:00.127Z,8.25
2022-11-19T14:31:05.052Z,10.13
2022-11-19T14:36:13.229Z,12.48
2022-11-19T14:41:20.995Z,14.15
2022-11-19T14:46:27.742Z,16.10
2022-11-19T14:51:40.459Z,14.88
2022-11-19T14:56:48.535Z,13.55
2022-11-19T15:01:57.394Z,15.25
2022-11-19T15:07:00.307Z,15.30
2022-11-19T15:12:01.971Z,16.42
2022-11-19T15:17:04.952Z,18.08
2022-11-19T15:22:20.802Z,15.35
2022-11-19T15:27:53.622Z,16.83
2022-11-19T15:33:32.869Z,15.88
2022-11-19T15:38:42.560Z,16.60
2022-11-19T15:43:51.860Z,17.10
2022-11-19T15:49:23.418Z,18.20
2022-11-19T15:54:30.015Z,16.92
2022-11-19T15:59:36.298Z,18.50
2022-11-19T16:04:39.031Z,18.45
2022-11-19T16:09:40.776Z,15.65
2022-11-19T16:15:12.265Z,16.98
2022-11-19T16:20:20.379Z,16.50
2022-11-19T16:25:31.736Z,20.45
2022-11-19T16:30:43.612Z,26.48
2022-11-19T16:35:51.225Z,22.70
2022-11-19T16:41:16.364Z,22.40
2022-11-19T16:46:39.376Z,21.40
2022-11-19T16:52:03.019Z,23.98
2022-11-19T16:57:19.462Z,26.30
2022-11-19T17:02:25.255Z,19.70
2022-11-19T17:07:27.983Z,20.23
2022-11-19T17:12:34.550Z,22.63
2022-11-19T17:17:45.803Z,22.58
2022-11-19T17:22:51.461Z,25.85
2022-11-19T17:27:55.889Z,22.35
2022-11-19T17:33:04.471Z,22.45
2022-11-19T17:38:27.636Z,23.77
2022-11-19T17:43:51.045Z,19.88
2022-11-19T17:48:57.383Z,19.08
2022-11-19T17:53:58.947Z,19.00
2022-11-19T17:59:15.372Z,16.33
2022-11-19T18:04:17.014Z,18.83
2022-11-19T18:09:21.629Z,17.73
2022-11-19T18:14:23.336Z,17.17
2022-11-19T18:19:27.153Z,23.42
2022-11-19T18:24:28.783Z,24.65
2022-11-19T18:29:31.970Z,22.80
2022-11-19T18:34:33.607Z,23.00
2022-11-19T18:39:35.143Z,24.00
2022-11-19T18:44:38.401Z,29.17
2022-11-19T18:49:40.490Z,33.88
2022-11-19T18:54:42.156Z,25.02
2022-11-19T18:59:43.714Z,28.65
2022-11-19T19:04:50.689Z,24.75
2022-11-19T19:09:52.692Z,25.58
2022-11-19T19:14:57.306Z,27.38
2022-11-19T19:19:58.827Z,27.05
2022-11-19T19:25:05.169Z,27.33
2022-11-19T19:30:09.822Z,25.40
2022-11-19T19:35:11.367Z,28.60
2022-11-19T19:40:13.469Z,28.67
2022-11-19T19:45:15.104Z,27.27
2022-11-19T19:50:16.703Z,28.20
2022-11-19T19:55:27.374Z,29.88
2022-11-19T20:00:28.963Z,32.33
2022-11-19T20:05:30.575Z,32.97
2022-11-19T20:10:33.528Z,32.25
2022-11-19T20:15:35.170Z,35.30
2022-11-19T20:20:36.718Z,39.33
2022-11-19T20:25:38.654Z,42.85
2022-11-19T20:30:45.527Z,37.63
2022-11-19T20:35:51.822Z,36.10
2022-11-19T20:41:01.602Z,34.17
2022-11-19T20:51:08.979Z,38.35
2022-11-19T20:56:13.092Z,42.35
2022-11-19T21:01:14.703Z,45.78
2022-11-19T21:06:33.505Z,38.28
2022-11-19T21:11:35.114Z,41.50
2022-11-19T21:16:45.610Z,39.85
2022-11-19T21:21:47.214Z,40.63
2022-11-19T21:26:52.043Z,45.28
2022-11-19T21:31:53.663Z,49.70
2022-11-19T21:36:57.934Z,36.33
2022-11-19T21:42:03.763Z,44.45
2022-11-19T21:47:05.307Z,41.10
2022-11-19T21:52:07.211Z,48.30
2022-11-19T21:57:08.776Z,40.00
2022-11-19T22:02:13.760Z,43.67
2022-11-19T22:07:15.338Z,37.95
2022-11-19T22:12:16.943Z,43.25
2022-11-19T22:17:18.544Z,41.60
2022-11-19T22:22:20.070Z,42.55
2022-11-19T22:27:21.659Z,38.35
2022-11-19T22:32:23.205Z,39.65
2022-11-19T22:37:24.743Z,47.03
2022-11-19T22:42:39.576Z,37.97
2022-11-19T22:47:41.121Z,40.00
2022-11-19T22:52:42.653Z,31.58
2022-11-19T22:57:44.209Z,30.75
2022-11-19T23:02:45.726Z,31.10
2022-11-19T23:07:47.272Z,29.50
2022-11-19T23:13:07.392Z,30.55
2022-11-19T23:18:08.988Z,28.08
2022-11-19T23:23:10.528Z,27.20
2022-11-19T23:28:13.442Z,31.42
2022-11-19T23:33:14.988Z,29.65
2022-11-19T23:38:17.115Z,26.25
2022-11-19T23:43:18.650Z,33.50
2022-11-19T23:48:20.374Z,28.77
2022-11-19T23:53:22.192Z,34.83
2022-11-19T23:58:28.404Z,31.77
